Aviation Digital Data Service (ADDS)

Output produced by METARs form (1109 UTC 18 June 2019)
found at http://www.aviationweather.gov/metar/data/
 
METAR text: FXMM 180700Z 00000KT 9999 NSC 10/00 Q1034 NOSIG
Conditions at: FXMM (MASERU/MOSHOESHO, LS) observed 0700 UTC 18 June 2019
Temperature: 10.0°C (50°F)
Dewpoint: 0.0°C (32°F) [RH = 50%]
Pressure (altimeter): 30.53 inches Hg (1034.0 mb)
Winds: calm
Visibility: 6 or more miles (10+ km)
Ceiling: at least 12,000 feet AGL
Clouds: sky clear below 12,000 feet AGL
Weather: no significant weather observed at this time

METAR text: FXMM 180500Z 00000KT 9999 NSC 05/M03 Q1032 NOSIG
Conditions at: FXMM (MASERU/MOSHOESHO, LS) observed 0500 UTC 18 June 2019
Temperature: 5.0°C (41°F)
Dewpoint: -3.0°C (27°F) [RH = 56%]
Pressure (altimeter): 30.47 inches Hg (1032.0 mb)
Winds: calm
Visibility: 6 or more miles (10+ km)
Ceiling: at least 12,000 feet AGL
Clouds: sky clear below 12,000 feet AGL
Weather: no significant weather observed at this time

METAR text: FXMM 170700Z 00000KT 9999 NSC 06/M03 Q1030 NOSIG
Conditions at: FXMM (MASERU/MOSHOESHO, LS) observed 0700 UTC 17 June 2019
Temperature: 6.0°C (43°F)
Dewpoint: -3.0°C (27°F) [RH = 52%]
Pressure (altimeter): 30.41 inches Hg (1030.0 mb)
Winds: calm
Visibility: 6 or more miles (10+ km)
Ceiling: at least 12,000 feet AGL
Clouds: sky clear below 12,000 feet AGL
Weather: no significant weather observed at this time